FSIA/SEZ METAR and TAF weather

Enter ICAO airport designator
Station Type Date Time Source
FSIA METAR 2021/07/28 05:00 UTC NOAA

FSIA 280500Z 12016G27KT 100V170 9999 SCT022 27/22 Q1013 NOSIG


Station Type Date Time Source
FSIA Decoded METAR 2021/07/28 05:00 UTC NOAA

Seychelles Inter-National Airport, Seychelles (FSIA) 04-40S 055-31E 3M
Jul 28, 2021 - 01:00 AM EDT / 2021.07.28 0500 UTC
Wind: from the ESE (120 degrees) at 18 MPH (16 KT) gusting to 31 MPH (27 KT) (direction variable):0
Visibility: greater than 7 mile(s):0
Sky conditions: partly cloudy
Temperature: 80 F (27 C)
Dew Point: 71 F (22 C)
Relative Humidity: 74%
Pressure (altimeter): 29.91 in. Hg (1013 hPa)
ob: FSIA 280500Z 12016G27KT 100V170 9999 SCT022 27/22 Q1013 NOSIG
cycle: 5

Station Type Date Time Source
FSIA TAF 2021/07/28 06:12 UTC NOAA

TAF FSIA 280502Z 2806/2906 12015G25KT 9999 SCT022

Example: see airport list